createdAt,value
2018-05-06T00:02:09.851Z,5.43
2018-05-06T00:04:35.579Z,5.60
2018-05-06T00:07:01.320Z,5.37
2018-05-06T00:09:27.065Z,5.40
2018-05-06T00:11:52.807Z,5.60
2018-05-06T00:14:18.548Z,5.60
2018-05-06T00:16:44.288Z,5.73
2018-05-06T00:19:10.029Z,5.33
2018-05-06T00:21:35.772Z,5.23
2018-05-06T00:24:01.516Z,5.57
2018-05-06T00:26:27.285Z,4.90
2018-05-06T00:28:53.043Z,5.20
2018-05-06T00:31:18.785Z,5.70
2018-05-06T00:33:44.536Z,5.10
2018-05-06T00:36:10.277Z,5.17
2018-05-06T00:38:36.016Z,6.13
2018-05-06T00:41:01.774Z,5.67
2018-05-06T00:43:27.512Z,5.37
2018-05-06T00:45:53.269Z,5.00
2018-05-06T00:48:19.011Z,5.40
2018-05-06T00:50:44.741Z,4.77
2018-05-06T00:53:10.476Z,5.00
2018-05-06T00:55:36.200Z,5.50
2018-05-06T00:58:01.939Z,5.37
2018-05-06T01:00:27.672Z,5.27
2018-05-06T01:02:53.413Z,5.07
2018-05-06T01:05:19.168Z,5.33
2018-05-06T01:07:44.913Z,4.93
2018-05-06T01:10:10.643Z,6.07
2018-05-06T01:12:36.378Z,6.10
2018-05-06T01:15:02.122Z,5.70
2018-05-06T01:17:27.863Z,5.00
2018-05-06T01:19:53.597Z,5.77
2018-05-06T01:22:19.352Z,5.60
2018-05-06T01:24:45.077Z,5.90
2018-05-06T01:27:10.803Z,5.97
2018-05-06T01:29:36.556Z,6.27
2018-05-06T01:32:02.324Z,6.40
2018-05-06T01:34:28.073Z,5.50
2018-05-06T01:36:53.795Z,6.47
2018-05-06T01:39:19.529Z,6.27
2018-05-06T01:41:45.273Z,6.67
2018-05-06T01:44:11.013Z,5.87
2018-05-06T01:46:36.764Z,5.87
2018-05-06T01:49:02.527Z,6.17
2018-05-06T01:51:28.256Z,5.77
2018-05-06T01:53:53.991Z,6.23
2018-05-06T01:56:19.729Z,5.63
2018-05-06T01:58:45.484Z,6.00
2018-05-06T02:01:11.228Z,5.83
2018-05-06T02:03:36.972Z,5.87
2018-05-06T02:06:02.713Z,6.00
2018-05-06T02:08:28.463Z,6.57
2018-05-06T02:10:54.192Z,5.43
2018-05-06T02:13:19.927Z,5.83
2018-05-06T02:15:45.680Z,6.33
2018-05-06T02:18:11.434Z,6.23
2018-05-06T02:20:37.176Z,5.57
2018-05-06T02:23:02.921Z,5.20
2018-05-06T02:25:28.657Z,6.00
2018-05-06T02:27:54.412Z,5.73
2018-05-06T02:30:20.144Z,6.23
2018-05-06T02:32:45.905Z,5.87
2018-05-06T02:35:11.640Z,6.27
2018-05-06T02:37:37.397Z,5.43
2018-05-06T02:40:03.132Z,6.20
2018-05-06T02:42:28.873Z,5.83
2018-05-06T02:44:54.609Z,6.57
2018-05-06T02:47:20.348Z,5.90
2018-05-06T02:49:46.089Z,7.53
2018-05-06T02:52:11.841Z,7.33
2018-05-06T02:54:37.603Z,7.23
2018-05-06T02:57:03.343Z,6.90
2018-05-06T02:59:29.107Z,7.87
2018-05-06T03:01:54.858Z,7.80
2018-05-06T03:04:20.605Z,6.50
2018-05-06T03:06:46.340Z,6.30
2018-05-06T03:09:12.080Z,6.57
2018-05-06T03:11:37.817Z,6.97
2018-05-06T03:14:03.580Z,7.33
2018-05-06T03:16:29.344Z,7.37
2018-05-06T03:18:55.110Z,6.47
2018-05-06T03:21:20.844Z,6.93
2018-05-06T03:23:46.592Z,6.30
2018-05-06T03:26:12.332Z,6.13
2018-05-06T03:28:38.072Z,6.50
2018-05-06T03:31:03.796Z,6.50
2018-05-06T03:33:29.532Z,7.07
2018-05-06T03:35:55.286Z,6.23
2018-05-06T03:38:21.028Z,6.23
2018-05-06T03:40:46.758Z,6.53
2018-05-06T03:43:12.506Z,6.67
2018-05-06T03:45:38.239Z,6.33
2018-05-06T03:48:03.981Z,6.47
2018-05-06T03:50:29.723Z,6.43
2018-05-06T03:52:55.455Z,5.73
2018-05-06T03:55:21.197Z,6.27
2018-05-06T03:57:59.243Z,6.20
2018-05-06T04:00:37.233Z,6.03
2018-05-06T04:03:02.972Z,5.70
2018-05-06T04:05:28.724Z,6.03
2018-05-06T04:07:54.469Z,7.10
2018-05-06T04:10:20.211Z,6.67
2018-05-06T04:12:45.944Z,6.10
2018-05-06T04:15:12.482Z,6.05
2018-05-06T04:17:38.221Z,6.13
2018-05-06T04:20:03.981Z,6.27
2018-05-06T04:22:29.733Z,6.23
2018-05-06T04:24:55.472Z,6.13
2018-05-06T04:27:21.212Z,6.53
2018-05-06T04:29:46.954Z,6.07
2018-05-06T04:32:12.680Z,7.30
2018-05-06T04:34:38.412Z,5.80
2018-05-06T04:37:04.159Z,6.23
2018-05-06T04:39:29.907Z,5.93
2018-05-06T04:41:55.641Z,6.90
2018-05-06T04:44:21.446Z,6.60
2018-05-06T04:46:47.144Z,6.23
2018-05-06T04:49:12.889Z,6.37
2018-05-06T04:51:38.624Z,6.90
2018-05-06T04:54:04.375Z,6.13
2018-05-06T04:56:30.116Z,6.30
2018-05-06T04:58:55.863Z,5.67
2018-05-06T05:01:21.619Z,6.17
2018-05-06T05:03:47.350Z,6.37
2018-05-06T05:06:13.096Z,6.20
2018-05-06T05:08:38.876Z,6.23
2018-05-06T05:11:04.640Z,5.63
2018-05-06T05:13:30.384Z,5.80
2018-05-06T05:15:56.136Z,5.73
2018-05-06T05:18:21.876Z,5.73
2018-05-06T05:20:47.681Z,5.33
2018-05-06T05:23:13.387Z,5.33
2018-05-06T05:25:39.148Z,5.30
2018-05-06T05:28:04.896Z,5.23
2018-05-06T05:30:30.639Z,5.40
2018-05-06T05:32:56.384Z,4.47
2018-05-06T05:35:22.133Z,5.27
2018-05-06T05:37:47.880Z,5.40
2018-05-06T05:40:13.624Z,4.80
2018-05-06T05:42:39.360Z,4.97
2018-05-06T05:45:05.120Z,4.47
2018-05-06T05:47:30.855Z,4.90
2018-05-06T05:49:56.627Z,4.63
2018-05-06T05:52:22.371Z,4.70
2018-05-06T05:54:48.113Z,4.60
2018-05-06T05:57:13.873Z,4.40
2018-05-06T05:59:39.634Z,4.37
2018-05-06T06:02:05.376Z,4.17
2018-05-06T06:04:31.125Z,4.70
2018-05-06T06:06:56.889Z,4.73
2018-05-06T06:09:22.624Z,4.40
2018-05-06T06:11:48.367Z,4.20
2018-05-06T06:14:14.116Z,4.33
2018-05-06T06:16:39.861Z,4.50
2018-05-06T06:19:05.597Z,4.20
2018-05-06T06:21:31.341Z,4.23
2018-05-06T06:23:57.076Z,4.47
2018-05-06T06:26:22.829Z,4.60
2018-05-06T06:28:48.572Z,4.17
2018-05-06T06:31:14.311Z,4.33
2018-05-06T06:33:40.053Z,3.93
2018-05-06T06:36:05.807Z,4.80
2018-05-06T06:38:31.538Z,4.27
2018-05-06T06:40:57.271Z,4.50
2018-05-06T06:43:22.992Z,4.37
2018-05-06T06:45:48.727Z,4.43
2018-05-06T06:48:14.461Z,4.30
2018-05-06T06:50:40.212Z,4.27
2018-05-06T06:53:05.959Z,4.90
2018-05-06T06:55:31.706Z,3.97
2018-05-06T06:57:57.444Z,4.70
2018-05-06T07:00:23.195Z,4.23
2018-05-06T07:02:48.933Z,4.00
2018-05-06T07:05:14.680Z,4.27
2018-05-06T07:07:40.407Z,4.00
2018-05-06T07:10:06.159Z,3.90
2018-05-06T07:12:31.906Z,4.37
2018-05-06T07:14:57.640Z,4.27
2018-05-06T07:17:23.381Z,3.57
2018-05-06T07:19:49.117Z,3.90
2018-05-06T07:22:14.868Z,3.70
2018-05-06T07:24:40.678Z,3.70
2018-05-06T07:27:06.356Z,3.80
2018-05-06T07:29:32.104Z,4.33
2018-05-06T07:31:57.847Z,4.30
2018-05-06T07:34:23.580Z,3.67
2018-05-06T07:36:49.333Z,3.60
2018-05-06T07:39:15.068Z,3.70
2018-05-06T07:41:40.799Z,3.40
2018-05-06T07:44:06.538Z,3.50
2018-05-06T07:46:32.289Z,3.30
2018-05-06T07:48:58.097Z,3.10
2018-05-06T07:51:23.763Z,2.90
2018-05-06T07:53:49.491Z,3.70
2018-05-06T07:56:15.234Z,3.40
2018-05-06T07:58:40.977Z,3.20
2018-05-06T08:01:06.740Z,3.43
2018-05-06T08:03:32.465Z,3.27
2018-05-06T08:05:58.209Z,3.23
2018-05-06T08:08:23.937Z,3.33
2018-05-06T08:10:49.705Z,2.67
2018-05-06T08:13:15.432Z,3.50
2018-05-06T08:15:41.185Z,2.90
2018-05-06T08:18:06.920Z,2.80
2018-05-06T08:20:32.653Z,3.03
2018-05-06T08:22:58.391Z,3.30
2018-05-06T08:25:24.125Z,3.40
2018-05-06T08:27:49.873Z,3.40
2018-05-06T08:30:15.615Z,3.40
2018-05-06T08:32:41.349Z,3.40
2018-05-06T08:35:07.074Z,3.60
2018-05-06T08:37:32.900Z,3.30
2018-05-06T08:39:58.565Z,3.53
2018-05-06T08:42:24.304Z,3.43
2018-05-06T08:44:50.025Z,3.40
2018-05-06T08:47:15.761Z,3.30
2018-05-06T08:49:41.504Z,2.57
2018-05-06T08:52:07.248Z,2.63
2018-05-06T08:54:32.979Z,2.73
2018-05-06T08:56:58.724Z,2.30
2018-05-06T08:59:24.480Z,2.83
2018-05-06T09:01:50.240Z,2.47
2018-05-06T09:04:15.976Z,2.30
2018-05-06T09:06:41.731Z,2.60
2018-05-06T09:09:07.457Z,2.30
2018-05-06T09:11:33.203Z,2.50
2018-05-06T09:13:58.948Z,2.40
2018-05-06T09:16:24.704Z,2.20
2018-05-06T09:18:50.444Z,2.10
2018-05-06T09:21:16.220Z,2.50
2018-05-06T09:23:41.961Z,2.67
2018-05-06T09:26:07.725Z,2.37
2018-05-06T09:28:33.475Z,2.30
2018-05-06T09:30:59.268Z,2.20
2018-05-06T09:33:25.009Z,1.93
2018-05-06T09:35:50.751Z,2.47
2018-05-06T09:38:16.519Z,2.10
2018-05-06T09:40:42.261Z,2.03
2018-05-06T09:43:08.016Z,1.90
2018-05-06T09:45:33.761Z,1.80
2018-05-06T09:47:59.503Z,1.70
2018-05-06T09:50:25.254Z,1.70
2018-05-06T09:52:50.995Z,2.00
2018-05-06T09:55:16.768Z,2.10
2018-05-06T09:57:42.508Z,2.40
2018-05-06T10:00:08.273Z,2.33
2018-05-06T10:02:34.036Z,2.27
2018-05-06T10:04:59.791Z,2.07
2018-05-06T10:07:25.547Z,2.57
2018-05-06T10:09:51.288Z,2.43
2018-05-06T10:12:17.044Z,2.20
2018-05-06T10:14:42.795Z,2.00
2018-05-06T10:17:08.552Z,2.60
2018-05-06T10:19:34.317Z,2.30
2018-05-06T10:22:00.069Z,2.00
2018-05-06T10:24:25.822Z,2.07
2018-05-06T10:26:51.579Z,2.03
2018-05-06T10:29:17.323Z,2.00
2018-05-06T10:31:43.067Z,1.90
2018-05-06T10:34:08.808Z,2.10
2018-05-06T10:36:34.556Z,2.10
2018-05-06T10:39:00.303Z,2.00
2018-05-06T10:41:26.057Z,2.30
2018-05-06T10:43:51.816Z,2.10
2018-05-06T10:46:17.558Z,1.90
2018-05-06T10:48:43.326Z,1.60
2018-05-06T10:51:09.067Z,1.90
2018-05-06T10:53:34.828Z,1.73
2018-05-06T10:56:00.590Z,1.80
2018-05-06T10:58:26.331Z,1.80
2018-05-06T11:00:52.085Z,1.67
2018-05-06T11:03:17.836Z,1.70
2018-05-06T11:05:43.584Z,1.77
2018-05-06T11:08:09.333Z,1.30
2018-05-06T11:10:35.084Z,1.43
2018-05-06T11:13:00.831Z,1.50
2018-05-06T11:15:26.582Z,1.50
2018-05-06T11:17:52.417Z,1.80
2018-05-06T11:20:18.081Z,1.50
2018-05-06T11:22:43.831Z,1.67
2018-05-06T11:25:09.572Z,1.57
2018-05-06T11:27:35.341Z,1.60
2018-05-06T11:30:01.096Z,1.50
2018-05-06T11:32:26.848Z,1.33
2018-05-06T11:34:52.591Z,1.50
2018-05-06T11:37:18.332Z,1.50
2018-05-06T11:39:44.089Z,1.63
2018-05-06T11:42:09.828Z,1.50
2018-05-06T11:44:35.575Z,1.70
2018-05-06T11:47:01.324Z,1.50
2018-05-06T11:49:27.101Z,1.70
2018-05-06T11:51:52.839Z,1.90
2018-05-06T11:54:18.589Z,1.60
2018-05-06T11:56:44.332Z,1.70
2018-05-06T11:59:10.090Z,1.73
2018-05-06T12:01:35.834Z,1.40
2018-05-06T12:04:01.568Z,1.43
2018-05-06T12:06:27.308Z,1.50
2018-05-06T12:08:53.064Z,1.97
2018-05-06T12:11:18.800Z,1.93
2018-05-06T12:13:44.555Z,2.20
2018-05-06T12:16:10.299Z,1.60
2018-05-06T12:18:36.052Z,1.67
2018-05-06T12:21:01.818Z,1.50
2018-05-06T12:23:27.584Z,1.87
2018-05-06T12:25:53.323Z,2.00
2018-05-06T12:28:19.078Z,1.73
2018-05-06T12:30:44.816Z,2.00
2018-05-06T12:33:10.577Z,1.97
2018-05-06T12:35:36.304Z,1.63
2018-05-06T12:38:02.043Z,1.80
2018-05-06T12:40:27.780Z,2.20
2018-05-06T12:42:53.528Z,2.10
2018-05-06T12:45:19.289Z,1.90
2018-05-06T12:47:45.028Z,2.20
2018-05-06T12:50:10.772Z,2.37
2018-05-06T12:52:36.524Z,6.37
2018-05-06T12:55:02.279Z,2.20
2018-05-06T12:57:28.021Z,2.40
2018-05-06T12:59:53.777Z,2.07
2018-05-06T13:02:19.614Z,2.10
2018-05-06T13:04:45.291Z,2.10
2018-05-06T13:07:11.037Z,2.40
2018-05-06T13:09:36.768Z,2.43
2018-05-06T13:12:02.503Z,2.23
2018-05-06T13:14:28.261Z,2.67
2018-05-06T13:16:54.000Z,2.20
2018-05-06T13:19:19.747Z,2.20
2018-05-06T13:21:45.487Z,2.40
2018-05-06T13:24:11.299Z,2.20
2018-05-06T13:26:36.997Z,2.40
2018-05-06T13:29:02.752Z,2.20
2018-05-06T13:31:28.495Z,2.57
2018-05-06T13:33:54.254Z,2.03
2018-05-06T13:36:19.983Z,2.33
2018-05-06T13:38:45.727Z,2.57
2018-05-06T13:41:11.477Z,2.47
2018-05-06T13:43:37.229Z,1.80
2018-05-06T13:46:02.973Z,2.00
2018-05-06T13:48:28.753Z,1.70
2018-05-06T13:50:54.479Z,1.87
2018-05-06T13:53:20.220Z,1.87
2018-05-06T13:55:45.955Z,1.77
2018-05-06T13:58:11.723Z,1.70
2018-05-06T14:00:37.477Z,1.93
2018-05-06T14:03:03.221Z,2.10
2018-05-06T14:05:28.986Z,1.93
2018-05-06T14:07:54.727Z,1.90
2018-05-06T14:10:20.476Z,1.70
2018-05-06T14:12:46.220Z,2.10
2018-05-06T14:15:11.977Z,1.63
2018-05-06T14:17:37.726Z,1.90
2018-05-06T14:20:03.484Z,1.60
2018-05-06T14:22:29.215Z,1.87
2018-05-06T14:24:54.961Z,1.80
2018-05-06T14:27:20.692Z,1.80
2018-05-06T14:29:46.439Z,1.67
2018-05-06T14:32:12.179Z,1.77
2018-05-06T14:34:37.925Z,2.07
2018-05-06T14:37:03.685Z,1.60
2018-05-06T14:39:29.518Z,1.57
2018-05-06T14:41:55.181Z,1.53
2018-05-06T14:44:20.948Z,1.77
2018-05-06T14:46:59.096Z,1.70
2018-05-06T14:49:24.854Z,1.60
2018-05-06T14:51:50.595Z,1.73
2018-05-06T14:54:16.347Z,1.70
2018-05-06T14:56:42.162Z,1.70
2018-05-06T14:59:07.909Z,1.53
2018-05-06T15:01:33.653Z,1.70
2018-05-06T15:03:59.405Z,1.63
2018-05-06T15:06:25.152Z,1.87
2018-05-06T15:08:50.889Z,1.70
2018-05-06T15:11:16.633Z,1.80
2018-05-06T15:13:42.380Z,1.80
2018-05-06T15:16:08.124Z,1.53
2018-05-06T15:18:33.861Z,1.50
2018-05-06T15:20:59.618Z,1.70
2018-05-06T15:23:25.365Z,1.70
2018-05-06T15:25:51.113Z,2.30
2018-05-06T15:28:16.852Z,1.80
2018-05-06T15:30:42.621Z,1.93
2018-05-06T15:33:08.371Z,1.80
2018-05-06T15:35:34.100Z,1.70
2018-05-06T15:37:59.847Z,2.00
2018-05-06T15:40:25.587Z,2.37
2018-05-06T15:42:51.343Z,1.97
2018-05-06T15:45:17.072Z,2.03
2018-05-06T15:47:42.819Z,2.07
2018-05-06T15:50:08.665Z,2.20
2018-05-06T15:52:34.351Z,2.40
2018-05-06T15:55:00.077Z,2.27
2018-05-06T15:57:25.820Z,2.10
2018-05-06T15:59:51.580Z,1.93
2018-05-06T16:15:55.411Z,2.20
2018-05-06T16:18:21.177Z,2.00
2018-05-06T16:20:46.914Z,2.00
2018-05-06T16:23:12.669Z,2.37
2018-05-06T16:25:38.510Z,2.17
2018-05-06T16:28:04.173Z,2.37
2018-05-06T16:30:29.916Z,2.10
2018-05-06T16:32:55.683Z,2.13
2018-05-06T16:35:21.442Z,2.20
2018-05-06T16:37:47.225Z,2.00
2018-05-06T16:40:12.984Z,2.03
2018-05-06T16:42:38.744Z,2.37
2018-05-06T16:45:04.504Z,2.30
2018-05-06T16:47:30.259Z,2.63
2018-05-06T16:49:56.011Z,2.53
2018-05-06T16:52:21.748Z,2.60
2018-05-06T16:54:47.501Z,2.20
2018-05-06T16:57:13.233Z,2.30
2018-05-06T16:59:38.996Z,2.40
2018-05-06T17:02:04.724Z,2.57
2018-05-06T17:04:30.821Z,2.20
2018-05-06T17:06:56.797Z,2.10
2018-05-06T17:09:22.553Z,2.57
2018-05-06T17:11:48.299Z,2.30
2018-05-06T17:14:14.040Z,2.57
2018-05-06T17:16:39.780Z,2.33
2018-05-06T17:19:05.539Z,2.60
2018-05-06T17:21:31.276Z,2.23
2018-05-06T17:23:57.036Z,2.40
2018-05-06T17:26:22.767Z,2.33
2018-05-06T17:28:48.512Z,2.07
2018-05-06T17:31:14.272Z,2.10
2018-05-06T17:33:40.007Z,1.90
2018-05-06T17:36:05.748Z,2.00
2018-05-06T17:38:31.499Z,2.07
2018-05-06T17:40:57.249Z,2.30
2018-05-06T17:43:22.981Z,2.30
2018-05-06T17:45:48.740Z,2.40
2018-05-06T17:48:14.482Z,1.97
2018-05-06T17:50:40.225Z,2.20
2018-05-06T17:53:05.956Z,2.43
2018-05-06T17:55:31.736Z,2.23
2018-05-06T17:57:57.465Z,2.20
2018-05-06T18:00:23.260Z,2.40
2018-05-06T18:02:48.995Z,2.27
2018-05-06T18:05:14.754Z,1.80
2018-05-06T18:07:40.484Z,2.00
2018-05-06T18:10:06.237Z,2.17
2018-05-06T18:12:31.983Z,1.80
2018-05-06T18:14:57.751Z,2.23
2018-05-06T18:17:23.488Z,2.00
2018-05-06T18:19:49.223Z,2.20
2018-05-06T18:22:14.977Z,2.30
2018-05-06T18:24:40.734Z,2.30
2018-05-06T18:27:06.460Z,2.60
2018-05-06T18:29:32.187Z,2.10
2018-05-06T18:31:57.942Z,2.33
2018-05-06T18:34:23.677Z,2.47
2018-05-06T18:36:49.428Z,2.70
2018-05-06T18:39:15.159Z,2.57
2018-05-06T18:41:40.912Z,2.97
2018-05-06T18:44:06.640Z,2.80
2018-05-06T18:46:32.385Z,2.40
2018-05-06T18:48:58.103Z,2.83
2018-05-06T18:51:23.869Z,2.50
2018-05-06T18:53:49.603Z,2.97
2018-05-06T18:56:15.342Z,2.63
2018-05-06T18:58:41.095Z,2.67
2018-05-06T19:01:06.839Z,3.00
2018-05-06T19:03:32.577Z,2.47
2018-05-06T19:05:58.316Z,2.60
2018-05-06T19:08:24.085Z,2.40
2018-05-06T19:10:49.811Z,2.40
2018-05-06T19:13:15.555Z,2.43
2018-05-06T19:15:41.283Z,2.80
2018-05-06T19:18:07.033Z,2.77
2018-05-06T19:20:32.768Z,3.00
2018-05-06T19:22:58.516Z,2.77
2018-05-06T19:25:24.258Z,2.50
2018-05-06T19:27:50.003Z,3.07
2018-05-06T19:30:15.740Z,2.90
2018-05-06T19:32:41.521Z,3.00
2018-05-06T19:35:07.249Z,2.90
2018-05-06T19:37:32.984Z,3.07
2018-05-06T19:39:58.733Z,2.70
2018-05-06T19:42:24.502Z,2.83
2018-05-06T19:44:50.213Z,2.70
2018-05-06T19:47:15.941Z,3.80
2018-05-06T19:49:41.700Z,3.97
2018-05-06T19:52:07.440Z,5.73
2018-05-06T19:54:33.184Z,5.77
2018-05-06T19:56:58.920Z,5.47
2018-05-06T19:59:24.681Z,4.10
2018-05-06T20:01:50.425Z,4.10
2018-05-06T20:04:16.172Z,3.40
2018-05-06T20:06:41.963Z,2.90
2018-05-06T20:09:07.735Z,3.50
2018-05-06T20:11:33.477Z,2.83
2018-05-06T20:13:59.268Z,3.50
2018-05-06T20:16:25.041Z,2.93
2018-05-06T20:18:50.776Z,3.27
2018-05-06T20:21:16.517Z,3.03
2018-05-06T20:23:42.245Z,2.73
2018-05-06T20:26:08.023Z,2.97
2018-05-06T20:28:33.767Z,2.80
2018-05-06T20:30:59.508Z,3.37
2018-05-06T20:33:25.240Z,3.07
2018-05-06T20:35:50.984Z,3.33
2018-05-06T20:38:16.745Z,3.47
2018-05-06T20:40:42.480Z,3.10
2018-05-06T20:43:08.207Z,2.80
2018-05-06T20:45:33.962Z,3.23
2018-05-06T20:48:00.117Z,3.30
2018-05-06T20:50:25.929Z,3.57
2018-05-06T20:52:51.664Z,3.57
2018-05-06T20:55:17.435Z,3.80
2018-05-06T20:57:43.164Z,3.50
2018-05-06T21:00:08.960Z,3.57
2018-05-06T21:02:34.708Z,3.40
2018-05-06T21:05:00.432Z,3.60
2018-05-06T21:07:26.176Z,3.50
2018-05-06T21:09:51.924Z,3.30
2018-05-06T21:12:17.681Z,3.73
2018-05-06T21:14:43.512Z,3.20
2018-05-06T21:17:09.245Z,3.13
2018-05-06T21:19:34.991Z,3.57
2018-05-06T21:22:00.732Z,3.37
2018-05-06T21:24:26.624Z,3.30
2018-05-06T21:26:52.424Z,3.27
2018-05-06T21:29:18.168Z,3.77
2018-05-06T21:31:43.916Z,3.40
2018-05-06T21:34:09.636Z,3.13
2018-05-06T21:36:35.382Z,3.30
2018-05-06T21:39:01.235Z,3.07
2018-05-06T21:41:27.240Z,3.30
2018-05-06T21:43:54.257Z,3.20
2018-05-06T21:46:20.021Z,3.83
2018-05-06T21:48:45.756Z,3.30
2018-05-06T21:51:12.473Z,3.50
2018-05-06T21:53:38.229Z,3.40
2018-05-06T21:56:04.667Z,3.77
2018-05-06T21:58:30.428Z,3.87
2018-05-06T22:00:56.175Z,3.60
2018-05-06T22:03:21.921Z,3.93
2018-05-06T22:05:47.653Z,3.57
2018-05-06T22:08:13.388Z,4.10
2018-05-06T22:10:39.149Z,4.50
2018-05-06T22:13:04.895Z,4.10
2018-05-06T22:15:30.625Z,3.97
2018-05-06T22:17:56.371Z,4.80
2018-05-06T22:20:22.091Z,3.90
2018-05-06T22:22:47.825Z,4.27
2018-05-06T22:25:13.553Z,4.53
2018-05-06T22:27:39.305Z,4.60
2018-05-06T22:30:05.043Z,4.60
2018-05-06T22:32:30.783Z,4.20
2018-05-06T22:34:56.530Z,4.57
2018-05-06T22:37:22.272Z,4.63
2018-05-06T22:39:48.009Z,4.50
2018-05-06T22:42:13.752Z,4.63
2018-05-06T22:44:39.499Z,5.17
2018-05-06T22:47:05.227Z,4.60
2018-05-06T22:49:30.965Z,4.80
2018-05-06T22:51:56.695Z,5.37
2018-05-06T22:54:22.436Z,4.60
2018-05-06T22:56:48.164Z,5.00
2018-05-06T22:59:13.921Z,4.90
2018-05-06T23:01:39.660Z,5.50
2018-05-06T23:04:05.404Z,5.27
2018-05-06T23:06:31.153Z,4.83
2018-05-06T23:08:56.920Z,4.00
2018-05-06T23:11:22.666Z,4.63
2018-05-06T23:13:48.412Z,4.90
2018-05-06T23:16:14.247Z,4.90
2018-05-06T23:18:39.929Z,5.17
2018-05-06T23:21:05.668Z,5.33
2018-05-06T23:23:31.396Z,4.60
2018-05-06T23:25:57.137Z,5.20
2018-05-06T23:28:22.872Z,4.57
2018-05-06T23:30:48.672Z,5.00
2018-05-06T23:33:14.411Z,5.47
2018-05-06T23:35:40.221Z,5.10
2018-05-06T23:38:05.906Z,5.20
2018-05-06T23:40:31.656Z,4.80
2018-05-06T23:42:57.403Z,5.10
2018-05-06T23:45:23.147Z,5.43
2018-05-06T23:47:48.893Z,4.93
2018-05-06T23:50:14.648Z,5.37
2018-05-06T23:52:40.388Z,4.93
2018-05-06T23:55:06.136Z,4.90
2018-05-06T23:57:31.876Z,5.53
2018-05-06T23:59:57.661Z,5.27
